Laguna Hills, California
Current Conditions -  °F | °C
As of 1:53 PM on Sunday 21 Dec 2014 (Local Time) from KSNA Reporting Station
Overcast Overcast  
Wind Chill: 69°   Ceiling: 25000
Heat Index: 69°   Visibility: 10mi
Dew Point: 53°   Wind: 0mph
Humidity: 57%   Direction: NA
Pressure: 30.05"   Gusts: NA
Location:  33.6°N, 117.69°W
Report Text: KSNA 212153Z 00000KT 10SM FEW028 OVC250 21/12 A3005 RMK AO2 SLP174 T02060117
Loading
Personal Weather Stations






























Interactive Weather Map New forecast layout! Learn more

10-Day Weather Forecast

Advertisements
Track Severe Weather on mobile